Terminal Aerodrome Forecast
Issued by NWS Brownsville, TX

Home | Current Version | Previous Version | Text Only | Print | Product List | Glossary On
Versions: 1 2 3 4 5 6 7 8 9 10 11 12 13 14 15 16 17
000
FTUS44 KBRO 011700
TAFMFE
TAF
KMFE 011737Z 0118/0218 14013G17KT P6SM FEW026
     FM020000 14015KT P6SM SCT250
     FM020600 15011KT P6SM BKN050
     FM020900 15010KT P6SM OVC025
      TEMPO 0212/0215 BKN020
     FM021600 16012KT P6SM SCT030=

USA.gov is the U.S. government's official web portal to all federal, state and local government web resources and services.